sensor_id;sensor_type;location;lat;lon;timestamp;P1;durP1;ratioP1;P2;durP2;ratioP2
69240;SDS011;56352;55.750;13.198;2023-02-15T00:01:46;46.20;;;19.77;;
69240;SDS011;56352;55.750;13.198;2023-02-15T00:04:14;44.90;;;19.02;;
69240;SDS011;56352;55.750;13.198;2023-02-15T00:06:42;41.67;;;18.23;;
69240;SDS011;56352;55.750;13.198;2023-02-15T00:09:10;42.08;;;18.10;;
69240;SDS011;56352;55.750;13.198;2023-02-15T00:11:37;42.70;;;18.13;;
69240;SDS011;56352;55.750;13.198;2023-02-15T00:14:13;44.75;;;17.42;;
69240;SDS011;56352;55.750;13.198;2023-02-15T00:16:42;48.60;;;19.63;;
69240;SDS011;56352;55.750;13.198;2023-02-15T00:19:10;44.20;;;18.75;;
69240;SDS011;56352;55.750;13.198;2023-02-15T00:21:37;52.08;;;19.88;;
69240;SDS011;56352;55.750;13.198;2023-02-15T00:24:07;45.28;;;19.35;;
69240;SDS011;56352;55.750;13.198;2023-02-15T00:26:35;46.65;;;18.73;;
69240;SDS011;56352;55.750;13.198;2023-02-15T00:29:02;49.38;;;18.38;;
69240;SDS011;56352;55.750;13.198;2023-02-15T00:31:29;43.42;;;18.35;;
69240;SDS011;56352;55.750;13.198;2023-02-15T00:34:31;47.42;;;19.02;;
69240;SDS011;56352;55.750;13.198;2023-02-15T00:36:51;46.15;;;18.90;;
69240;SDS011;56352;55.750;13.198;2023-02-15T00:39:18;41.38;;;17.98;;
69240;SDS011;56352;55.750;13.198;2023-02-15T00:41:45;45.00;;;16.88;;
69240;SDS011;56352;55.750;13.198;2023-02-15T00:44:13;41.33;;;18.13;;
69240;SDS011;56352;55.750;13.198;2023-02-15T00:46:40;48.08;;;18.42;;
69240;SDS011;56352;55.750;13.198;2023-02-15T00:49:06;48.75;;;19.20;;
69240;SDS011;56352;55.750;13.198;2023-02-15T00:51:33;38.88;;;17.98;;
69240;SDS011;56352;55.750;13.198;2023-02-15T00:54:00;44.63;;;17.73;;
69240;SDS011;56352;55.750;13.198;2023-02-15T00:56:26;46.15;;;19.23;;
69240;SDS011;56352;55.750;13.198;2023-02-15T00:58:54;40.78;;;18.35;;
69240;SDS011;56352;55.750;13.198;2023-02-15T01:01:21;41.10;;;18.73;;
69240;SDS011;56352;55.750;13.198;2023-02-15T01:03:48;41.75;;;17.73;;
69240;SDS011;56352;55.750;13.198;2023-02-15T01:06:15;44.80;;;18.13;;
69240;SDS011;56352;55.750;13.198;2023-02-15T01:08:43;42.00;;;16.88;;
69240;SDS011;56352;55.750;13.198;2023-02-15T01:11:20;46.72;;;17.55;;
69240;SDS011;56352;55.750;13.198;2023-02-15T01:13:52;46.83;;;17.63;;
69240;SDS011;56352;55.750;13.198;2023-02-15T01:16:20;46.22;;;18.30;;
69240;SDS011;56352;55.750;13.198;2023-02-15T01:18:49;46.35;;;19.35;;
69240;SDS011;56352;55.750;13.198;2023-02-15T01:21:17;43.42;;;17.15;;
69240;SDS011;56352;55.750;13.198;2023-02-15T01:23:45;38.65;;;16.10;;
69240;SDS011;56352;55.750;13.198;2023-02-15T01:26:12;42.72;;;16.67;;
69240;SDS011;56352;55.750;13.198;2023-02-15T01:28:39;52.13;;;17.20;;
69240;SDS011;56352;55.750;13.198;2023-02-15T01:31:10;38.95;;;16.98;;
69240;SDS011;56352;55.750;13.198;2023-02-15T01:33:38;43.20;;;17.23;;
69240;SDS011;56352;55.750;13.198;2023-02-15T01:36:05;38.72;;;16.17;;
69240;SDS011;56352;55.750;13.198;2023-02-15T01:38:32;44.42;;;16.27;;
69240;SDS011;56352;55.750;13.198;2023-02-15T01:40:59;44.63;;;17.05;;
69240;SDS011;56352;55.750;13.198;2023-02-15T01:43:45;39.03;;;16.75;;
69240;SDS011;56352;55.750;13.198;2023-02-15T01:46:17;42.72;;;16.80;;
69240;SDS011;56352;55.750;13.198;2023-02-15T01:51:14;36.25;;;14.45;;
69240;SDS011;56352;55.750;13.198;2023-02-15T01:53:52;39.13;;;16.45;;
69240;SDS011;56352;55.750;13.198;2023-02-15T01:56:21;42.83;;;16.70;;
69240;SDS011;56352;55.750;13.198;2023-02-15T01:58:51;41.28;;;15.85;;
69240;SDS011;56352;55.750;13.198;2023-02-15T02:01:21;41.63;;;17.10;;
69240;SDS011;56352;55.750;13.198;2023-02-15T02:06:41;34.22;;;14.52;;
69240;SDS011;56352;55.750;13.198;2023-02-15T02:09:08;41.63;;;15.25;;
69240;SDS011;56352;55.750;13.198;2023-02-15T02:11:34;41.17;;;14.90;;
69240;SDS011;56352;55.750;13.198;2023-02-15T02:14:01;41.13;;;16.15;;
69240;SDS011;56352;55.750;13.198;2023-02-15T02:16:30;43.67;;;16.40;;
69240;SDS011;56352;55.750;13.198;2023-02-15T02:19:10;37.08;;;14.40;;
69240;SDS011;56352;55.750;13.198;2023-02-15T02:24:53;42.92;;;17.15;;
69240;SDS011;56352;55.750;13.198;2023-02-15T02:27:29;37.95;;;15.23;;
69240;SDS011;56352;55.750;13.198;2023-02-15T02:44:56;40.97;;;15.77;;
69240;SDS011;56352;55.750;13.198;2023-02-15T02:47:29;39.90;;;15.80;;
69240;SDS011;56352;55.750;13.198;2023-02-15T02:50:00;42.97;;;15.43;;
69240;SDS011;56352;55.750;13.198;2023-02-15T02:52:34;40.65;;;15.88;;
69240;SDS011;56352;55.750;13.198;2023-02-15T02:55:03;38.75;;;15.32;;
69240;SDS011;56352;55.750;13.198;2023-02-15T02:57:33;40.97;;;15.52;;
69240;SDS011;56352;55.750;13.198;2023-02-15T03:00:00;38.72;;;15.77;;
69240;SDS011;56352;55.750;13.198;2023-02-15T03:05:02;34.25;;;14.75;;
69240;SDS011;56352;55.750;13.198;2023-02-15T03:07:31;39.33;;;17.38;;
69240;SDS011;56352;55.750;13.198;2023-02-15T03:09:58;38.33;;;15.63;;
69240;SDS011;56352;55.750;13.198;2023-02-15T03:12:31;38.60;;;15.50;;
69240;SDS011;56352;55.750;13.198;2023-02-15T03:17:32;45.20;;;16.17;;
69240;SDS011;56352;55.750;13.198;2023-02-15T03:20:01;42.35;;;15.82;;
69240;SDS011;56352;55.750;13.198;2023-02-15T03:22:39;43.83;;;15.05;;
69240;SDS011;56352;55.750;13.198;2023-02-15T03:25:22;39.75;;;15.23;;
69240;SDS011;56352;55.750;13.198;2023-02-15T03:27:53;48.63;;;16.65;;
69240;SDS011;56352;55.750;13.198;2023-02-15T03:30:22;45.95;;;16.33;;
69240;SDS011;56352;55.750;13.198;2023-02-15T03:32:49;42.90;;;17.30;;
69240;SDS011;56352;55.750;13.198;2023-02-15T03:35:17;43.67;;;16.27;;
69240;SDS011;56352;55.750;13.198;2023-02-15T03:37:51;44.33;;;17.05;;
69240;SDS011;56352;55.750;13.198;2023-02-15T03:40:29;43.33;;;16.17;;
69240;SDS011;56352;55.750;13.198;2023-02-15T03:43:18;45.40;;;15.75;;
69240;SDS011;56352;55.750;13.198;2023-02-15T03:45:48;42.88;;;16.27;;
69240;SDS011;56352;55.750;13.198;2023-02-15T03:48:33;39.20;;;15.70;;
69240;SDS011;56352;55.750;13.198;2023-02-15T03:51:05;44.85;;;16.13;;
69240;SDS011;56352;55.750;13.198;2023-02-15T03:53:53;49.30;;;17.52;;
69240;SDS011;56352;55.750;13.198;2023-02-15T03:56:21;43.35;;;16.65;;
69240;SDS011;56352;55.750;13.198;2023-02-15T03:58:47;51.65;;;18.77;;
69240;SDS011;56352;55.750;13.198;2023-02-15T04:04:38;41.78;;;16.92;;
69240;SDS011;56352;55.750;13.198;2023-02-15T04:07:06;46.15;;;16.83;;
69240;SDS011;56352;55.750;13.198;2023-02-15T04:09:34;44.60;;;17.33;;
69240;SDS011;56352;55.750;13.198;2023-02-15T04:12:19;40.45;;;17.08;;
69240;SDS011;56352;55.750;13.198;2023-02-15T04:14:46;50.15;;;18.27;;
69240;SDS011;56352;55.750;13.198;2023-02-15T04:17:31;50.58;;;17.42;;
69240;SDS011;56352;55.750;13.198;2023-02-15T04:19:57;45.72;;;17.23;;
69240;SDS011;56352;55.750;13.198;2023-02-15T04:22:43;47.33;;;16.67;;
69240;SDS011;56352;55.750;13.198;2023-02-15T04:25:28;47.58;;;17.42;;
69240;SDS011;56352;55.750;13.198;2023-02-15T04:27:55;48.17;;;18.80;;
69240;SDS011;56352;55.750;13.198;2023-02-15T04:30:22;47.40;;;18.90;;
69240;SDS011;56352;55.750;13.198;2023-02-15T04:32:51;51.17;;;17.42;;
69240;SDS011;56352;55.750;13.198;2023-02-15T04:35:17;49.25;;;17.88;;
69240;SDS011;56352;55.750;13.198;2023-02-15T04:37:44;52.08;;;19.83;;
69240;SDS011;56352;55.750;13.198;2023-02-15T04:40:12;44.33;;;17.42;;
69240;SDS011;56352;55.750;13.198;2023-02-15T04:42:42;43.28;;;16.75;;
69240;SDS011;56352;55.750;13.198;2023-02-15T04:45:08;50.35;;;16.73;;
69240;SDS011;56352;55.750;13.198;2023-02-15T04:47:35;49.85;;;19.00;;
69240;SDS011;56352;55.750;13.198;2023-02-15T04:50:02;54.17;;;20.25;;
69240;SDS011;56352;55.750;13.198;2023-02-15T04:52:28;47.00;;;17.80;;
69240;SDS011;56352;55.750;13.198;2023-02-15T04:54:55;53.45;;;19.13;;
69240;SDS011;56352;55.750;13.198;2023-02-15T04:57:22;50.80;;;18.63;;
69240;SDS011;56352;55.750;13.198;2023-02-15T04:59:48;52.55;;;18.75;;
69240;SDS011;56352;55.750;13.198;2023-02-15T05:02:15;50.78;;;19.17;;
69240;SDS011;56352;55.750;13.198;2023-02-15T05:04:42;46.78;;;18.08;;
69240;SDS011;56352;55.750;13.198;2023-02-15T05:07:08;54.05;;;19.63;;
69240;SDS011;56352;55.750;13.198;2023-02-15T05:09:35;52.97;;;19.77;;
69240;SDS011;56352;55.750;13.198;2023-02-15T05:12:02;48.35;;;19.63;;
69240;SDS011;56352;55.750;13.198;2023-02-15T05:14:28;49.58;;;18.23;;
69240;SDS011;56352;55.750;13.198;2023-02-15T05:16:55;48.05;;;19.17;;
69240;SDS011;56352;55.750;13.198;2023-02-15T05:19:22;55.50;;;18.88;;
69240;SDS011;56352;55.750;13.198;2023-02-15T05:21:50;47.58;;;17.63;;
69240;SDS011;56352;55.750;13.198;2023-02-15T05:24:17;37.65;;;16.17;;
69240;SDS011;56352;55.750;13.198;2023-02-15T05:27:02;49.38;;;17.83;;
69240;SDS011;56352;55.750;13.198;2023-02-15T05:29:47;47.47;;;17.27;;
69240;SDS011;56352;55.750;13.198;2023-02-15T05:32:13;51.17;;;19.20;;
69240;SDS011;56352;55.750;13.198;2023-02-15T05:34:40;43.55;;;18.42;;
69240;SDS011;56352;55.750;13.198;2023-02-15T05:37:07;44.78;;;17.48;;
69240;SDS011;56352;55.750;13.198;2023-02-15T05:39:34;51.80;;;19.55;;
69240;SDS011;56352;55.750;13.198;2023-02-15T05:42:01;51.10;;;20.77;;
69240;SDS011;56352;55.750;13.198;2023-02-15T05:44:27;46.05;;;19.38;;
69240;SDS011;56352;55.750;13.198;2023-02-15T05:46:54;42.22;;;18.77;;
69240;SDS011;56352;55.750;13.198;2023-02-15T05:49:20;44.80;;;19.02;;
69240;SDS011;56352;55.750;13.198;2023-02-15T05:51:48;49.38;;;18.90;;
69240;SDS011;56352;55.750;13.198;2023-02-15T05:54:15;49.78;;;18.50;;
69240;SDS011;56352;55.750;13.198;2023-02-15T05:56:42;43.55;;;18.08;;
69240;SDS011;56352;55.750;13.198;2023-02-15T05:59:08;48.30;;;18.95;;
69240;SDS011;56352;55.750;13.198;2023-02-15T06:01:35;45.58;;;17.88;;
69240;SDS011;56352;55.750;13.198;2023-02-15T06:04:02;50.08;;;19.00;;
69240;SDS011;56352;55.750;13.198;2023-02-15T06:06:28;50.55;;;19.23;;
69240;SDS011;56352;55.750;13.198;2023-02-15T06:08:55;53.95;;;19.67;;
69240;SDS011;56352;55.750;13.198;2023-02-15T06:11:21;45.95;;;18.85;;
69240;SDS011;56352;55.750;13.198;2023-02-15T06:13:48;52.90;;;19.75;;
69240;SDS011;56352;55.750;13.198;2023-02-15T06:16:14;47.13;;;19.30;;
69240;SDS011;56352;55.750;13.198;2023-02-15T06:18:42;50.05;;;19.98;;
69240;SDS011;56352;55.750;13.198;2023-02-15T06:21:09;46.35;;;17.15;;
69240;SDS011;56352;55.750;13.198;2023-02-15T06:23:36;47.63;;;17.58;;
69240;SDS011;56352;55.750;13.198;2023-02-15T06:26:02;41.45;;;17.45;;
69240;SDS011;56352;55.750;13.198;2023-02-15T06:28:29;45.40;;;18.42;;
69240;SDS011;56352;55.750;13.198;2023-02-15T06:30:56;43.80;;;18.80;;
69240;SDS011;56352;55.750;13.198;2023-02-15T06:33:23;42.03;;;16.58;;
69240;SDS011;56352;55.750;13.198;2023-02-15T06:35:50;42.33;;;17.27;;
69240;SDS011;56352;55.750;13.198;2023-02-15T06:38:16;42.10;;;16.20;;
69240;SDS011;56352;55.750;13.198;2023-02-15T06:40:43;43.40;;;17.80;;
69240;SDS011;56352;55.750;13.198;2023-02-15T06:43:10;39.00;;;17.05;;
69240;SDS011;56352;55.750;13.198;2023-02-15T06:45:36;46.15;;;18.67;;
69240;SDS011;56352;55.750;13.198;2023-02-15T06:48:03;45.20;;;16.67;;
69240;SDS011;56352;55.750;13.198;2023-02-15T06:50:34;46.83;;;18.73;;
69240;SDS011;56352;55.750;13.198;2023-02-15T06:53:00;47.90;;;17.67;;
69240;SDS011;56352;55.750;13.198;2023-02-15T06:55:27;46.47;;;16.98;;
69240;SDS011;56352;55.750;13.198;2023-02-15T06:57:53;45.25;;;18.08;;
69240;SDS011;56352;55.750;13.198;2023-02-15T07:00:20;43.88;;;17.35;;
69240;SDS011;56352;55.750;13.198;2023-02-15T07:02:56;50.45;;;17.75;;
69240;SDS011;56352;55.750;13.198;2023-02-15T07:05:27;46.63;;;18.42;;
69240;SDS011;56352;55.750;13.198;2023-02-15T07:07:57;47.15;;;18.83;;
69240;SDS011;56352;55.750;13.198;2023-02-15T07:10:24;43.63;;;18.13;;
69240;SDS011;56352;55.750;13.198;2023-02-15T07:12:51;49.67;;;19.10;;
69240;SDS011;56352;55.750;13.198;2023-02-15T07:15:18;48.83;;;18.17;;
69240;SDS011;56352;55.750;13.198;2023-02-15T07:17:48;41.90;;;17.65;;
69240;SDS011;56352;55.750;13.198;2023-02-15T07:20:16;48.38;;;18.10;;
69240;SDS011;56352;55.750;13.198;2023-02-15T07:22:44;49.20;;;19.50;;
69240;SDS011;56352;55.750;13.198;2023-02-15T07:25:11;49.58;;;19.60;;
69240;SDS011;56352;55.750;13.198;2023-02-15T07:27:39;42.85;;;18.92;;
69240;SDS011;56352;55.750;13.198;2023-02-15T07:30:06;48.35;;;18.75;;
69240;SDS011;56352;55.750;13.198;2023-02-15T07:32:35;45.60;;;19.02;;
69240;SDS011;56352;55.750;13.198;2023-02-15T07:35:01;49.55;;;19.05;;
69240;SDS011;56352;55.750;13.198;2023-02-15T07:37:28;50.50;;;19.83;;
69240;SDS011;56352;55.750;13.198;2023-02-15T07:39:55;51.30;;;19.60;;
69240;SDS011;56352;55.750;13.198;2023-02-15T07:42:21;48.00;;;18.75;;
69240;SDS011;56352;55.750;13.198;2023-02-15T07:44:48;44.80;;;19.23;;
69240;SDS011;56352;55.750;13.198;2023-02-15T07:47:15;43.40;;;18.60;;
69240;SDS011;56352;55.750;13.198;2023-02-15T07:49:41;45.85;;;18.50;;
69240;SDS011;56352;55.750;13.198;2023-02-15T07:52:08;56.80;;;18.75;;
69240;SDS011;56352;55.750;13.198;2023-02-15T07:54:34;45.22;;;19.75;;
69240;SDS011;56352;55.750;13.198;2023-02-15T07:57:01;52.25;;;19.35;;
69240;SDS011;56352;55.750;13.198;2023-02-15T07:59:28;52.20;;;20.27;;
69240;SDS011;56352;55.750;13.198;2023-02-15T08:01:54;51.05;;;20.33;;
69240;SDS011;56352;55.750;13.198;2023-02-15T08:04:23;48.53;;;20.20;;
69240;SDS011;56352;55.750;13.198;2023-02-15T08:06:52;52.60;;;19.85;;
69240;SDS011;56352;55.750;13.198;2023-02-15T08:11:46;45.70;;;18.23;;
69240;SDS011;56352;55.750;13.198;2023-02-15T08:14:17;46.05;;;20.17;;
69240;SDS011;56352;55.750;13.198;2023-02-15T08:16:49;50.00;;;19.58;;
69240;SDS011;56352;55.750;13.198;2023-02-15T08:24:23;50.22;;;19.70;;
69240;SDS011;56352;55.750;13.198;2023-02-15T08:26:54;48.03;;;20.35;;
69240;SDS011;56352;55.750;13.198;2023-02-15T08:29:22;48.00;;;18.92;;
69240;SDS011;56352;55.750;13.198;2023-02-15T08:31:54;52.75;;;19.90;;
69240;SDS011;56352;55.750;13.198;2023-02-15T08:34:25;48.40;;;20.40;;
69240;SDS011;56352;55.750;13.198;2023-02-15T08:36:51;50.58;;;19.42;;
69240;SDS011;56352;55.750;13.198;2023-02-15T08:39:18;51.95;;;20.80;;
69240;SDS011;56352;55.750;13.198;2023-02-15T08:41:46;52.95;;;21.40;;
69240;SDS011;56352;55.750;13.198;2023-02-15T08:44:17;56.35;;;23.00;;
69240;SDS011;56352;55.750;13.198;2023-02-15T08:46:45;58.53;;;21.02;;
69240;SDS011;56352;55.750;13.198;2023-02-15T08:49:14;55.80;;;21.02;;
69240;SDS011;56352;55.750;13.198;2023-02-15T08:51:43;58.17;;;21.23;;
69240;SDS011;56352;55.750;13.198;2023-02-15T08:54:12;51.65;;;20.50;;
69240;SDS011;56352;55.750;13.198;2023-02-15T08:56:40;48.78;;;20.58;;
69240;SDS011;56352;55.750;13.198;2023-02-15T08:59:11;50.35;;;20.60;;
69240;SDS011;56352;55.750;13.198;2023-02-15T09:01:48;46.22;;;20.75;;
69240;SDS011;56352;55.750;13.198;2023-02-15T09:04:16;51.22;;;20.65;;
69240;SDS011;56352;55.750;13.198;2023-02-15T09:06:44;54.20;;;21.08;;
69240;SDS011;56352;55.750;13.198;2023-02-15T09:09:14;59.53;;;23.08;;
69240;SDS011;56352;55.750;13.198;2023-02-15T09:11:42;52.75;;;21.73;;
69240;SDS011;56352;55.750;13.198;2023-02-15T09:14:10;48.97;;;20.13;;
69240;SDS011;56352;55.750;13.198;2023-02-15T09:16:40;50.72;;;20.52;;
69240;SDS011;56352;55.750;13.198;2023-02-15T09:19:08;47.38;;;20.73;;
69240;SDS011;56352;55.750;13.198;2023-02-15T09:21:36;49.92;;;20.27;;
69240;SDS011;56352;55.750;13.198;2023-02-15T09:24:05;49.90;;;19.75;;
69240;SDS011;56352;55.750;13.198;2023-02-15T09:26:34;57.92;;;20.90;;
69240;SDS011;56352;55.750;13.198;2023-02-15T09:29:02;48.97;;;19.52;;
69240;SDS011;56352;55.750;13.198;2023-02-15T09:31:31;44.72;;;19.40;;
69240;SDS011;56352;55.750;13.198;2023-02-15T09:34:00;49.47;;;21.20;;
69240;SDS011;56352;55.750;13.198;2023-02-15T09:36:34;48.85;;;19.30;;
69240;SDS011;56352;55.750;13.198;2023-02-15T09:39:16;46.10;;;19.30;;
69240;SDS011;56352;55.750;13.198;2023-02-15T10:01:20;44.72;;;18.45;;
69240;SDS011;56352;55.750;13.198;2023-02-15T10:04:01;43.45;;;18.15;;
69240;SDS011;56352;55.750;13.198;2023-02-15T10:12:28;44.08;;;18.92;;
69240;SDS011;56352;55.750;13.198;2023-02-15T10:31:21;41.70;;;18.77;;
69240;SDS011;56352;55.750;13.198;2023-02-15T10:34:11;40.03;;;18.58;;
69240;SDS011;56352;55.750;13.198;2023-02-15T10:39:54;43.55;;;19.85;;
69240;SDS011;56352;55.750;13.198;2023-02-15T10:42:49;44.88;;;20.27;;
69240;SDS011;56352;55.750;13.198;2023-02-15T10:50:59;43.58;;;19.38;;
69240;SDS011;56352;55.750;13.198;2023-02-15T11:07:25;45.47;;;20.33;;
69240;SDS011;56352;55.750;13.198;2023-02-15T11:10:00;45.92;;;20.33;;
69240;SDS011;56352;55.750;13.198;2023-02-15T11:12:32;52.45;;;20.23;;
69240;SDS011;56352;55.750;13.198;2023-02-15T11:15:04;44.80;;;19.85;;
69240;SDS011;56352;55.750;13.198;2023-02-15T11:17:53;36.85;;;17.85;;
69240;SDS011;56352;55.750;13.198;2023-02-15T11:20:37;40.53;;;18.55;;
69240;SDS011;56352;55.750;13.198;2023-02-15T11:23:17;42.35;;;19.17;;
69240;SDS011;56352;55.750;13.198;2023-02-15T11:25:45;37.70;;;18.27;;
69240;SDS011;56352;55.750;13.198;2023-02-15T11:28:24;38.80;;;18.35;;
69240;SDS011;56352;55.750;13.198;2023-02-15T11:30:57;40.60;;;19.92;;
69240;SDS011;56352;55.750;13.198;2023-02-15T11:33:30;34.85;;;18.63;;
69240;SDS011;56352;55.750;13.198;2023-02-15T11:36:01;38.40;;;18.23;;
69240;SDS011;56352;55.750;13.198;2023-02-15T11:38:32;37.55;;;19.80;;
69240;SDS011;56352;55.750;13.198;2023-02-15T11:46:04;36.95;;;19.00;;
69240;SDS011;56352;55.750;13.198;2023-02-15T11:48:31;37.85;;;19.50;;
69240;SDS011;56352;55.750;13.198;2023-02-15T11:50:58;38.35;;;20.05;;
69240;SDS011;56352;55.750;13.198;2023-02-15T11:53:26;35.60;;;18.92;;
69240;SDS011;56352;55.750;13.198;2023-02-15T11:55:54;36.33;;;19.00;;
69240;SDS011;56352;55.750;13.198;2023-02-15T12:01:02;36.42;;;18.67;;
69240;SDS011;56352;55.750;13.198;2023-02-15T12:06:05;34.72;;;18.80;;
69240;SDS011;56352;55.750;13.198;2023-02-15T12:09:03;35.28;;;18.58;;
69240;SDS011;56352;55.750;13.198;2023-02-15T12:11:37;39.05;;;19.58;;
69240;SDS011;56352;55.750;13.198;2023-02-15T12:14:06;33.38;;;18.90;;
69240;SDS011;56352;55.750;13.198;2023-02-15T12:16:48;34.75;;;18.42;;
69240;SDS011;56352;55.750;13.198;2023-02-15T12:21:58;33.85;;;17.98;;
69240;SDS011;56352;55.750;13.198;2023-02-15T12:27:05;33.72;;;17.88;;
69240;SDS011;56352;55.750;13.198;2023-02-15T12:29:50;36.78;;;18.55;;
69240;SDS011;56352;55.750;13.198;2023-02-15T12:32:25;36.60;;;18.98;;
69240;SDS011;56352;55.750;13.198;2023-02-15T12:34:55;36.72;;;18.65;;
69240;SDS011;56352;55.750;13.198;2023-02-15T12:37:27;35.05;;;19.25;;
69240;SDS011;56352;55.750;13.198;2023-02-15T12:39:59;37.40;;;19.10;;
69240;SDS011;56352;55.750;13.198;2023-02-15T12:42:27;36.50;;;19.27;;
69240;SDS011;56352;55.750;13.198;2023-02-15T12:45:02;33.25;;;17.88;;
69240;SDS011;56352;55.750;13.198;2023-02-15T12:47:31;36.53;;;18.33;;
69240;SDS011;56352;55.750;13.198;2023-02-15T12:52:37;33.95;;;17.67;;
69240;SDS011;56352;55.750;13.198;2023-02-15T12:55:39;37.15;;;18.48;;
69240;SDS011;56352;55.750;13.198;2023-02-15T13:06:25;34.80;;;17.73;;
69240;SDS011;56352;55.750;13.198;2023-02-15T13:08:53;32.60;;;17.10;;
69240;SDS011;56352;55.750;13.198;2023-02-15T13:11:23;34.93;;;18.60;;
69240;SDS011;56352;55.750;13.198;2023-02-15T13:13:54;33.67;;;17.73;;
69240;SDS011;56352;55.750;13.198;2023-02-15T13:16:30;37.80;;;19.42;;
69240;SDS011;56352;55.750;13.198;2023-02-15T13:18:58;35.97;;;17.98;;
69240;SDS011;56352;55.750;13.198;2023-02-15T13:21:31;37.90;;;18.92;;
69240;SDS011;56352;55.750;13.198;2023-02-15T13:24:23;36.85;;;19.05;;
69240;SDS011;56352;55.750;13.198;2023-02-15T13:26:49;35.13;;;17.52;;
69240;SDS011;56352;55.750;13.198;2023-02-15T13:29:29;39.58;;;19.98;;
69240;SDS011;56352;55.750;13.198;2023-02-15T13:32:05;39.72;;;20.60;;
69240;SDS011;56352;55.750;13.198;2023-02-15T13:34:37;35.97;;;20.25;;
69240;SDS011;56352;55.750;13.198;2023-02-15T13:45:36;40.85;;;20.17;;
69240;SDS011;56352;55.750;13.198;2023-02-15T13:48:15;40.47;;;20.30;;
69240;SDS011;56352;55.750;13.198;2023-02-15T13:57:16;36.95;;;19.45;;
69240;SDS011;56352;55.750;13.198;2023-02-15T14:16:36;39.05;;;19.40;;
69240;SDS011;56352;55.750;13.198;2023-02-15T14:19:16;35.20;;;18.38;;
69240;SDS011;56352;55.750;13.198;2023-02-15T14:24:30;42.55;;;22.45;;
69240;SDS011;56352;55.750;13.198;2023-02-15T14:32:33;39.92;;;19.55;;
69240;SDS011;56352;55.750;13.198;2023-02-15T14:35:03;41.50;;;19.88;;
69240;SDS011;56352;55.750;13.198;2023-02-15T14:40:19;47.38;;;21.27;;
69240;SDS011;56352;55.750;13.198;2023-02-15T14:46:17;42.38;;;19.70;;
69240;SDS011;56352;55.750;13.198;2023-02-15T14:48:59;44.58;;;21.35;;
69240;SDS011;56352;55.750;13.198;2023-02-15T15:02:13;44.83;;;20.88;;
69240;SDS011;56352;55.750;13.198;2023-02-15T15:04:43;48.05;;;22.05;;
69240;SDS011;56352;55.750;13.198;2023-02-15T15:07:19;47.42;;;21.25;;
69240;SDS011;56352;55.750;13.198;2023-02-15T15:09:57;51.08;;;21.48;;
69240;SDS011;56352;55.750;13.198;2023-02-15T15:12:52;44.70;;;20.88;;
69240;SDS011;56352;55.750;13.198;2023-02-15T15:18:08;48.10;;;21.90;;
69240;SDS011;56352;55.750;13.198;2023-02-15T15:25:45;46.17;;;20.80;;
69240;SDS011;56352;55.750;13.198;2023-02-15T15:39:33;45.92;;;21.00;;
69240;SDS011;56352;55.750;13.198;2023-02-15T15:42:31;45.47;;;20.88;;
69240;SDS011;56352;55.750;13.198;2023-02-15T15:50:51;50.58;;;22.35;;
69240;SDS011;56352;55.750;13.198;2023-02-15T15:53:22;50.17;;;22.73;;
69240;SDS011;56352;55.750;13.198;2023-02-15T15:55:52;45.95;;;22.20;;
69240;SDS011;56352;55.750;13.198;2023-02-15T15:58:22;55.70;;;21.58;;
69240;SDS011;56352;55.750;13.198;2023-02-15T16:00:51;52.20;;;21.50;;
69240;SDS011;56352;55.750;13.198;2023-02-15T16:03:25;55.72;;;22.65;;
69240;SDS011;56352;55.750;13.198;2023-02-15T16:05:53;48.95;;;21.05;;
69240;SDS011;56352;55.750;13.198;2023-02-15T16:11:07;47.10;;;20.65;;
69240;SDS011;56352;55.750;13.198;2023-02-15T16:13:39;59.17;;;22.55;;
69240;SDS011;56352;55.750;13.198;2023-02-15T16:18:33;53.55;;;20.83;;
69240;SDS011;56352;55.750;13.198;2023-02-15T16:21:04;53.55;;;22.08;;
69240;SDS011;56352;55.750;13.198;2023-02-15T16:28:49;53.22;;;21.52;;
69240;SDS011;56352;55.750;13.198;2023-02-15T16:31:18;55.03;;;22.17;;
69240;SDS011;56352;55.750;13.198;2023-02-15T16:33:46;60.78;;;22.00;;
69240;SDS011;56352;55.750;13.198;2023-02-15T16:36:20;53.17;;;22.00;;
69240;SDS011;56352;55.750;13.198;2023-02-15T16:41:15;57.53;;;22.20;;
69240;SDS011;56352;55.750;13.198;2023-02-15T16:43:50;52.53;;;21.48;;
69240;SDS011;56352;55.750;13.198;2023-02-15T16:46:23;45.58;;;18.08;;
69240;SDS011;56352;55.750;13.198;2023-02-15T16:48:53;47.38;;;17.85;;
69240;SDS011;56352;55.750;13.198;2023-02-15T16:51:21;41.90;;;17.42;;
69240;SDS011;56352;55.750;13.198;2023-02-15T16:53:54;42.53;;;16.77;;
69240;SDS011;56352;55.750;13.198;2023-02-15T16:56:22;39.42;;;17.35;;
69240;SDS011;56352;55.750;13.198;2023-02-15T16:58:50;39.73;;;17.13;;
69240;SDS011;56352;55.750;13.198;2023-02-15T17:01:20;37.38;;;15.90;;
69240;SDS011;56352;55.750;13.198;2023-02-15T17:03:48;37.92;;;16.00;;
69240;SDS011;56352;55.750;13.198;2023-02-15T17:06:18;39.13;;;17.13;;
69240;SDS011;56352;55.750;13.198;2023-02-15T17:08:53;32.17;;;14.25;;
69240;SDS011;56352;55.750;13.198;2023-02-15T17:11:34;35.95;;;14.98;;
69240;SDS011;56352;55.750;13.198;2023-02-15T17:16:30;33.47;;;14.77;;
69240;SDS011;56352;55.750;13.198;2023-02-15T17:19:07;29.45;;;14.40;;
69240;SDS011;56352;55.750;13.198;2023-02-15T17:21:37;35.90;;;16.30;;
69240;SDS011;56352;55.750;13.198;2023-02-15T17:24:18;38.40;;;16.75;;
69240;SDS011;56352;55.750;13.198;2023-02-15T17:26:50;36.55;;;16.23;;
69240;SDS011;56352;55.750;13.198;2023-02-15T17:32:09;35.63;;;15.02;;
69240;SDS011;56352;55.750;13.198;2023-02-15T17:37:47;31.00;;;14.65;;
69240;SDS011;56352;55.750;13.198;2023-02-15T17:40:20;38.08;;;15.55;;
69240;SDS011;56352;55.750;13.198;2023-02-15T17:42:50;32.63;;;14.73;;
69240;SDS011;56352;55.750;13.198;2023-02-15T17:45:18;32.88;;;14.82;;
69240;SDS011;56352;55.750;13.198;2023-02-15T17:47:46;32.33;;;13.80;;
69240;SDS011;56352;55.750;13.198;2023-02-15T17:50:21;31.13;;;13.48;;
69240;SDS011;56352;55.750;13.198;2023-02-15T17:52:49;33.72;;;15.25;;
69240;SDS011;56352;55.750;13.198;2023-02-15T17:55:18;34.67;;;15.43;;
69240;SDS011;56352;55.750;13.198;2023-02-15T17:58:02;29.48;;;14.98;;
69240;SDS011;56352;55.750;13.198;2023-02-15T18:00:45;28.77;;;13.63;;
69240;SDS011;56352;55.750;13.198;2023-02-15T18:03:40;39.15;;;15.13;;
69240;SDS011;56352;55.750;13.198;2023-02-15T18:06:26;32.55;;;14.00;;
69240;SDS011;56352;55.750;13.198;2023-02-15T18:09:12;35.15;;;14.35;;
69240;SDS011;56352;55.750;13.198;2023-02-15T18:11:59;35.45;;;14.57;;
69240;SDS011;56352;55.750;13.198;2023-02-15T18:14:25;32.65;;;15.35;;
69240;SDS011;56352;55.750;13.198;2023-02-15T18:16:52;27.33;;;13.18;;
69240;SDS011;56352;55.750;13.198;2023-02-15T18:19:21;29.95;;;15.38;;
69240;SDS011;56352;55.750;13.198;2023-02-15T18:21:49;28.67;;;13.98;;
69240;SDS011;56352;55.750;13.198;2023-02-15T18:24:18;32.60;;;14.37;;